sensor_id;sensor_type;location;lat;lon;timestamp;pressure;altitude;pressure_sealevel;temperature;humidity
72370;BME280;60343;-32.030;115.880;2023-10-31T00:00:44;102309.72;;;21.03;40.76
72370;BME280;60343;-32.030;115.880;2023-10-31T00:03:20;102308.88;;;20.48;42.70
72370;BME280;60343;-32.030;115.880;2023-10-31T00:05:55;102314.25;;;20.35;42.84
72370;BME280;60343;-32.030;115.880;2023-10-31T00:08:36;102313.56;;;20.68;42.34
72370;BME280;60343;-32.030;115.880;2023-10-31T00:11:11;102319.31;;;21.47;41.79
72370;BME280;60343;-32.030;115.880;2023-10-31T00:13:46;102307.16;;;21.69;39.79
72370;BME280;60343;-32.030;115.880;2023-10-31T00:16:21;102302.75;;;22.20;39.60
72370;BME280;60343;-32.030;115.880;2023-10-31T00:18:57;102300.63;;;22.36;39.05
72370;BME280;60343;-32.030;115.880;2023-10-31T00:21:32;102299.72;;;22.55;38.61
72370;BME280;60343;-32.030;115.880;2023-10-31T00:24:13;102293.63;;;22.59;38.50
72370;BME280;60343;-32.030;115.880;2023-10-31T00:26:48;102300.28;;;22.83;38.28
72370;BME280;60343;-32.030;115.880;2023-10-31T00:29:24;102288.25;;;22.91;37.63
72370;BME280;60343;-32.030;115.880;2023-10-31T00:31:59;102301.50;;;23.25;37.47
72370;BME280;60343;-32.030;115.880;2023-10-31T00:34:34;102303.94;;;23.46;37.12
72370;BME280;60343;-32.030;115.880;2023-10-31T00:37:09;102304.31;;;23.19;37.12
72370;BME280;60343;-32.030;115.880;2023-10-31T00:39:50;102300.19;;;23.03;37.10
72370;BME280;60343;-32.030;115.880;2023-10-31T00:42:25;102294.19;;;23.19;37.65
72370;BME280;60343;-32.030;115.880;2023-10-31T00:45:01;102288.66;;;23.64;36.67
72370;BME280;60343;-32.030;115.880;2023-10-31T00:47:36;102300.94;;;23.17;38.18
72370;BME280;60343;-32.030;115.880;2023-10-31T00:50:11;102287.31;;;23.10;37.38
72370;BME280;60343;-32.030;115.880;2023-10-31T00:52:47;102289.75;;;22.93;37.15
72370;BME280;60343;-32.030;115.880;2023-10-31T00:55:28;102285.34;;;22.08;39.47
72370;BME280;60343;-32.030;115.880;2023-10-31T00:58:03;102284.84;;;22.51;38.82
72370;BME280;60343;-32.030;115.880;2023-10-31T01:00:38;102281.81;;;22.79;38.52
72370;BME280;60343;-32.030;115.880;2023-10-31T01:03:13;102271.50;;;22.87;39.05
72370;BME280;60343;-32.030;115.880;2023-10-31T01:05:48;102277.88;;;23.06;38.15
72370;BME280;60343;-32.030;115.880;2023-10-31T01:08:24;102271.34;;;23.70;37.10
72370;BME280;60343;-32.030;115.880;2023-10-31T01:11:05;102269.53;;;24.07;35.49
72370;BME280;60343;-32.030;115.880;2023-10-31T01:13:41;102267.06;;;24.60;35.77
72370;BME280;60343;-32.030;115.880;2023-10-31T01:16:16;102257.75;;;24.79;34.53
72370;BME280;60343;-32.030;115.880;2023-10-31T01:18:51;102260.38;;;24.74;34.70
72370;BME280;60343;-32.030;115.880;2023-10-31T01:21:26;102260.63;;;24.54;34.47
72370;BME280;60343;-32.030;115.880;2023-10-31T01:24:01;102255.50;;;24.58;35.29
72370;BME280;60343;-32.030;115.880;2023-10-31T01:26:42;102263.69;;;24.76;34.46
72370;BME280;60343;-32.030;115.880;2023-10-31T01:29:17;102262.72;;;24.89;34.36
72370;BME280;60343;-32.030;115.880;2023-10-31T01:31:52;102261.41;;;24.73;34.84
72370;BME280;60343;-32.030;115.880;2023-10-31T01:34:28;102259.09;;;25.06;34.90
72370;BME280;60343;-32.030;115.880;2023-10-31T01:37:03;102256.28;;;25.25;34.12
72370;BME280;60343;-32.030;115.880;2023-10-31T01:39:38;102252.41;;;25.44;32.97
72370;BME280;60343;-32.030;115.880;2023-10-31T01:42:21;102245.91;;;25.68;33.16
72370;BME280;60343;-32.030;115.880;2023-10-31T01:44:56;102246.97;;;25.90;32.26
72370;BME280;60343;-32.030;115.880;2023-10-31T01:47:31;102244.66;;;25.52;32.40
72370;BME280;60343;-32.030;115.880;2023-10-31T01:50:07;102241.69;;;25.66;33.94
72370;BME280;60343;-32.030;115.880;2023-10-31T01:52:43;102245.53;;;25.65;33.74
72370;BME280;60343;-32.030;115.880;2023-10-31T01:55:19;102245.03;;;25.56;33.53
72370;BME280;60343;-32.030;115.880;2023-10-31T01:58:03;102237.25;;;25.53;33.17
72370;BME280;60343;-32.030;115.880;2023-10-31T02:00:33;102221.41;;;25.43;33.31
72370;BME280;60343;-32.030;115.880;2023-10-31T02:03:09;102232.31;;;25.20;33.43
72370;BME280;60343;-32.030;115.880;2023-10-31T02:05:44;102222.56;;;25.36;33.16
72370;BME280;60343;-32.030;115.880;2023-10-31T02:08:20;102222.94;;;25.51;33.56
72370;BME280;60343;-32.030;115.880;2023-10-31T02:10:55;102226.69;;;25.03;33.51
72370;BME280;60343;-32.030;115.880;2023-10-31T02:13:37;102214.78;;;25.09;33.95
72370;BME280;60343;-32.030;115.880;2023-10-31T02:16:12;102215.91;;;25.43;33.32
72370;BME280;60343;-32.030;115.880;2023-10-31T02:18:47;102215.84;;;25.85;32.23
72370;BME280;60343;-32.030;115.880;2023-10-31T02:21:23;102211.16;;;26.09;32.42
72370;BME280;60343;-32.030;115.880;2023-10-31T02:24:06;102201.13;;;26.02;31.66
72370;BME280;60343;-32.030;115.880;2023-10-31T02:26:42;102199.94;;;26.10;32.38
72370;BME280;60343;-32.030;115.880;2023-10-31T02:29:17;102196.38;;;25.98;32.15
72370;BME280;60343;-32.030;115.880;2023-10-31T02:31:52;102201.25;;;25.38;32.85
72370;BME280;60343;-32.030;115.880;2023-10-31T02:34:27;102193.59;;;24.87;34.02
72370;BME280;60343;-32.030;115.880;2023-10-31T02:37:02;102196.25;;;24.45;34.66
72370;BME280;60343;-32.030;115.880;2023-10-31T02:39:43;102194.22;;;24.41;35.25
72370;BME280;60343;-32.030;115.880;2023-10-31T02:42:19;102189.56;;;24.59;34.17
72370;BME280;60343;-32.030;115.880;2023-10-31T02:44:54;102192.28;;;25.19;34.38
72370;BME280;60343;-32.030;115.880;2023-10-31T02:47:29;102181.13;;;25.79;33.92
72370;BME280;60343;-32.030;115.880;2023-10-31T02:50:05;102176.50;;;26.31;32.24
72370;BME280;60343;-32.030;115.880;2023-10-31T02:52:41;102169.88;;;26.72;31.56
72370;BME280;60343;-32.030;115.880;2023-10-31T02:55:22;102157.63;;;26.91;31.04
72370;BME280;60343;-32.030;115.880;2023-10-31T02:57:57;102157.97;;;27.11;31.30
72370;BME280;60343;-32.030;115.880;2023-10-31T03:00:32;102165.66;;;27.09;31.16
72370;BME280;60343;-32.030;115.880;2023-10-31T03:03:07;102156.91;;;26.96;30.44
72370;BME280;60343;-32.030;115.880;2023-10-31T03:05:43;102152.19;;;26.79;30.50
72370;BME280;60343;-32.030;115.880;2023-10-31T03:08:18;102145.38;;;26.54;30.67
72370;BME280;60343;-32.030;115.880;2023-10-31T03:11:00;102138.16;;;26.36;29.96
72370;BME280;60343;-32.030;115.880;2023-10-31T03:13:35;102138.84;;;26.43;31.03
72370;BME280;60343;-32.030;115.880;2023-10-31T03:16:10;102135.22;;;26.54;30.40
72370;BME280;60343;-32.030;115.880;2023-10-31T03:18:45;102135.94;;;26.78;30.25
72370;BME280;60343;-32.030;115.880;2023-10-31T03:21:20;102133.25;;;26.95;30.32
72370;BME280;60343;-32.030;115.880;2023-10-31T03:23:55;102129.22;;;27.02;29.27
72370;BME280;60343;-32.030;115.880;2023-10-31T03:26:36;102126.16;;;26.99;29.53
72370;BME280;60343;-32.030;115.880;2023-10-31T03:29:11;102121.44;;;26.82;29.71
72370;BME280;60343;-32.030;115.880;2023-10-31T03:31:47;102119.00;;;27.14;29.26
72370;BME280;60343;-32.030;115.880;2023-10-31T03:34:22;102117.91;;;27.15;29.60
72370;BME280;60343;-32.030;115.880;2023-10-31T03:36:57;102121.66;;;27.09;29.36
72370;BME280;60343;-32.030;115.880;2023-10-31T03:39:32;102113.53;;;26.86;29.25
72370;BME280;60343;-32.030;115.880;2023-10-31T03:42:13;102114.75;;;26.90;29.66
72370;BME280;60343;-32.030;115.880;2023-10-31T03:44:48;102111.31;;;27.50;29.08
72370;BME280;60343;-32.030;115.880;2023-10-31T03:47:24;102102.84;;;27.95;28.62
72370;BME280;60343;-32.030;115.880;2023-10-31T03:49:59;102110.16;;;28.33;27.19
72370;BME280;60343;-32.030;115.880;2023-10-31T03:52:34;102089.91;;;28.44;26.92
72370;BME280;60343;-32.030;115.880;2023-10-31T03:55:09;102086.97;;;28.82;27.00
72370;BME280;60343;-32.030;115.880;2023-10-31T03:57:50;102086.16;;;29.19;25.98
72370;BME280;60343;-32.030;115.880;2023-10-31T04:00:25;102071.94;;;29.32;25.04
72370;BME280;60343;-32.030;115.880;2023-10-31T04:03:00;102071.00;;;29.16;24.97
72370;BME280;60343;-32.030;115.880;2023-10-31T04:05:36;102070.69;;;28.76;26.89
72370;BME280;60343;-32.030;115.880;2023-10-31T04:08:11;102065.00;;;28.34;27.28
72370;BME280;60343;-32.030;115.880;2023-10-31T04:10:47;102073.47;;;28.27;26.14
72370;BME280;60343;-32.030;115.880;2023-10-31T04:13:28;102067.09;;;28.22;26.06
72370;BME280;60343;-32.030;115.880;2023-10-31T04:16:03;102066.88;;;28.55;25.99
72370;BME280;60343;-32.030;115.880;2023-10-31T04:18:38;102058.91;;;28.85;26.08
72370;BME280;60343;-32.030;115.880;2023-10-31T04:21:13;102067.78;;;28.97;25.64
72370;BME280;60343;-32.030;115.880;2023-10-31T04:23:48;102059.66;;;28.76;25.32
72370;BME280;60343;-32.030;115.880;2023-10-31T04:26:24;102061.66;;;28.85;25.53
72370;BME280;60343;-32.030;115.880;2023-10-31T04:29:05;102060.50;;;28.76;25.68
72370;BME280;60343;-32.030;115.880;2023-10-31T04:31:40;102053.53;;;29.06;25.48
72370;BME280;60343;-32.030;115.880;2023-10-31T04:34:15;102053.03;;;29.14;25.39
72370;BME280;60343;-32.030;115.880;2023-10-31T04:36:50;102053.34;;;29.17;24.86
72370;BME280;60343;-32.030;115.880;2023-10-31T04:39:25;102041.09;;;29.40;24.43
72370;BME280;60343;-32.030;115.880;2023-10-31T04:42:00;102037.34;;;29.66;24.19
72370;BME280;60343;-32.030;115.880;2023-10-31T04:44:41;102031.31;;;29.79;25.78
72370;BME280;60343;-32.030;115.880;2023-10-31T04:47:17;102031.66;;;29.93;23.78
72370;BME280;60343;-32.030;115.880;2023-10-31T04:49:52;102021.81;;;30.43;23.54
72370;BME280;60343;-32.030;115.880;2023-10-31T04:52:27;102025.16;;;30.70;25.48
72370;BME280;60343;-32.030;115.880;2023-10-31T04:55:02;102009.09;;;30.97;23.43
72370;BME280;60343;-32.030;115.880;2023-10-31T04:57:37;102013.25;;;30.80;23.94
72370;BME280;60343;-32.030;115.880;2023-10-31T05:00:19;102013.25;;;30.80;24.56
72370;BME280;60343;-32.030;115.880;2023-10-31T05:02:54;102008.00;;;30.93;24.01
72370;BME280;60343;-32.030;115.880;2023-10-31T05:05:30;102009.13;;;30.62;24.42
72370;BME280;60343;-32.030;115.880;2023-10-31T05:08:05;102006.34;;;30.72;22.85
72370;BME280;60343;-32.030;115.880;2023-10-31T05:10:41;101999.72;;;30.83;23.40
72370;BME280;60343;-32.030;115.880;2023-10-31T05:13:16;101999.41;;;31.05;22.71
72370;BME280;60343;-32.030;115.880;2023-10-31T05:15:58;101997.41;;;31.21;23.04
72370;BME280;60343;-32.030;115.880;2023-10-31T05:18:33;101996.03;;;31.28;22.66
72370;BME280;60343;-32.030;115.880;2023-10-31T05:21:08;101988.81;;;31.27;22.56
72370;BME280;60343;-32.030;115.880;2023-10-31T05:23:43;101982.47;;;31.22;23.21
72370;BME280;60343;-32.030;115.880;2023-10-31T05:26:18;101981.13;;;30.94;22.47
72370;BME280;60343;-32.030;115.880;2023-10-31T05:28:55;101978.91;;;31.11;22.77
72370;BME280;60343;-32.030;115.880;2023-10-31T05:31:37;101978.56;;;31.33;22.88
72370;BME280;60343;-32.030;115.880;2023-10-31T05:34:12;101963.22;;;31.61;22.38
72370;BME280;60343;-32.030;115.880;2023-10-31T05:36:47;101961.84;;;31.63;22.01
72370;BME280;60343;-32.030;115.880;2023-10-31T05:39:23;101960.31;;;31.27;22.27
72370;BME280;60343;-32.030;115.880;2023-10-31T05:41:58;101954.75;;;31.32;21.96
72370;BME280;60343;-32.030;115.880;2023-10-31T05:44:33;101955.91;;;31.26;22.39
72370;BME280;60343;-32.030;115.880;2023-10-31T05:47:14;101932.81;;;31.50;22.04
72370;BME280;60343;-32.030;115.880;2023-10-31T05:49:50;101935.50;;;31.66;21.39
72370;BME280;60343;-32.030;115.880;2023-10-31T05:52:28;101926.59;;;31.79;21.95
72370;BME280;60343;-32.030;115.880;2023-10-31T05:55:04;101925.97;;;31.38;22.17
72370;BME280;60343;-32.030;115.880;2023-10-31T05:57:40;101920.34;;;31.53;23.12
72370;BME280;60343;-32.030;115.880;2023-10-31T06:00:16;101921.72;;;31.50;22.14
72370;BME280;60343;-32.030;115.880;2023-10-31T06:02:57;101918.88;;;31.71;21.73
72370;BME280;60343;-32.030;115.880;2023-10-31T06:05:32;101903.91;;;31.72;22.19
72370;BME280;60343;-32.030;115.880;2023-10-31T06:08:07;101897.59;;;32.00;21.93
72370;BME280;60343;-32.030;115.880;2023-10-31T06:10:42;101898.66;;;32.04;21.98
72370;BME280;60343;-32.030;115.880;2023-10-31T06:13:17;101897.00;;;32.08;21.88
72370;BME280;60343;-32.030;115.880;2023-10-31T06:15:53;101884.81;;;32.04;22.02
72370;BME280;60343;-32.030;115.880;2023-10-31T06:18:34;101878.53;;;32.56;21.68
72370;BME280;60343;-32.030;115.880;2023-10-31T06:21:10;101880.56;;;32.98;20.39
72370;BME280;60343;-32.030;115.880;2023-10-31T06:23:45;101878.84;;;33.26;20.73
72370;BME280;60343;-32.030;115.880;2023-10-31T06:26:20;101872.47;;;33.02;20.66
72370;BME280;60343;-32.030;115.880;2023-10-31T06:28:55;101872.63;;;33.10;20.42
72370;BME280;60343;-32.030;115.880;2023-10-31T06:31:30;101866.00;;;33.30;20.45
72370;BME280;60343;-32.030;115.880;2023-10-31T06:34:11;101867.06;;;33.34;20.15
72370;BME280;60343;-32.030;115.880;2023-10-31T06:36:47;101859.13;;;33.28;20.27
72370;BME280;60343;-32.030;115.880;2023-10-31T06:39:22;101857.53;;;33.22;20.46
72370;BME280;60343;-32.030;115.880;2023-10-31T06:41:57;101864.00;;;33.54;20.49
72370;BME280;60343;-32.030;115.880;2023-10-31T06:44:32;101869.53;;;32.93;24.21
72370;BME280;60343;-32.030;115.880;2023-10-31T06:47:07;101865.00;;;32.78;24.81
72370;BME280;60343;-32.030;115.880;2023-10-31T06:49:48;101860.09;;;32.42;26.58
72370;BME280;60343;-32.030;115.880;2023-10-31T06:52:24;101867.25;;;32.48;27.21
72370;BME280;60343;-32.030;115.880;2023-10-31T06:54:59;101860.75;;;32.00;26.50
72370;BME280;60343;-32.030;115.880;2023-10-31T06:57:34;101865.00;;;31.48;28.77
72370;BME280;60343;-32.030;115.880;2023-10-31T07:00:10;101870.34;;;31.29;27.82
72370;BME280;60343;-32.030;115.880;2023-10-31T07:02:45;101869.69;;;31.03;28.20
72370;BME280;60343;-32.030;115.880;2023-10-31T07:05:26;101878.38;;;30.51;28.54
72370;BME280;60343;-32.030;115.880;2023-10-31T07:08:01;101867.63;;;29.89;29.79
72370;BME280;60343;-32.030;115.880;2023-10-31T07:10:37;101869.25;;;28.97;31.96
72370;BME280;60343;-32.030;115.880;2023-10-31T07:13:12;101868.22;;;28.20;34.21
72370;BME280;60343;-32.030;115.880;2023-10-31T07:15:48;101871.25;;;27.59;34.81
72370;BME280;60343;-32.030;115.880;2023-10-31T07:18:23;101872.88;;;27.12;34.37
72370;BME280;60343;-32.030;115.880;2023-10-31T07:21:05;101870.03;;;26.85;35.40
72370;BME280;60343;-32.030;115.880;2023-10-31T07:23:40;101865.72;;;26.72;35.94
72370;BME280;60343;-32.030;115.880;2023-10-31T07:26:16;101862.09;;;26.67;36.11
72370;BME280;60343;-32.030;115.880;2023-10-31T07:28:51;101862.97;;;26.51;36.65
72370;BME280;60343;-32.030;115.880;2023-10-31T07:31:26;101865.78;;;26.56;37.67
72370;BME280;60343;-32.030;115.880;2023-10-31T07:34:01;101865.19;;;26.54;37.64
72370;BME280;60343;-32.030;115.880;2023-10-31T07:36:44;101869.88;;;26.53;37.21
72370;BME280;60343;-32.030;115.880;2023-10-31T07:39:19;101862.13;;;26.50;37.90
72370;BME280;60343;-32.030;115.880;2023-10-31T07:41:55;101861.78;;;26.46;36.02
72370;BME280;60343;-32.030;115.880;2023-10-31T07:44:30;101861.75;;;26.25;33.88
72370;BME280;60343;-32.030;115.880;2023-10-31T07:47:06;101858.72;;;25.93;34.43
72370;BME280;60343;-32.030;115.880;2023-10-31T07:49:41;101857.53;;;25.72;34.97
72370;BME280;60343;-32.030;115.880;2023-10-31T07:52:22;101850.47;;;25.48;36.22
72370;BME280;60343;-32.030;115.880;2023-10-31T07:54:57;101856.19;;;25.46;36.96
72370;BME280;60343;-32.030;115.880;2023-10-31T07:57:32;101862.44;;;25.42;36.67
72370;BME280;60343;-32.030;115.880;2023-10-31T08:00:11;101846.84;;;25.31;36.90
72370;BME280;60343;-32.030;115.880;2023-10-31T08:02:46;101854.50;;;25.29;37.25
72370;BME280;60343;-32.030;115.880;2023-10-31T08:05:22;101864.78;;;25.21;36.51
72370;BME280;60343;-32.030;115.880;2023-10-31T08:08:03;101859.88;;;25.24;36.19
72370;BME280;60343;-32.030;115.880;2023-10-31T08:10:38;101865.28;;;25.07;36.51
72370;BME280;60343;-32.030;115.880;2023-10-31T08:13:13;101864.25;;;24.96;37.79
72370;BME280;60343;-32.030;115.880;2023-10-31T08:15:48;101866.28;;;24.77;39.30
72370;BME280;60343;-32.030;115.880;2023-10-31T08:18:24;101869.19;;;24.59;41.03
72370;BME280;60343;-32.030;115.880;2023-10-31T08:20:59;101873.22;;;24.22;41.27
72370;BME280;60343;-32.030;115.880;2023-10-31T08:23:41;101870.28;;;24.05;41.48
72370;BME280;60343;-32.030;115.880;2023-10-31T08:26:16;101868.44;;;23.76;42.39
72370;BME280;60343;-32.030;115.880;2023-10-31T08:28:51;101871.13;;;23.64;42.18
72370;BME280;60343;-32.030;115.880;2023-10-31T08:31:26;101866.50;;;23.65;42.86
72370;BME280;60343;-32.030;115.880;2023-10-31T08:34:01;101865.84;;;23.81;42.81
72370;BME280;60343;-32.030;115.880;2023-10-31T08:36:36;101866.47;;;23.83;43.07
72370;BME280;60343;-32.030;115.880;2023-10-31T08:39:17;101865.00;;;23.69;42.92
72370;BME280;60343;-32.030;115.880;2023-10-31T08:41:53;101854.50;;;23.66;42.97
72370;BME280;60343;-32.030;115.880;2023-10-31T08:44:29;101858.97;;;23.78;42.67
72370;BME280;60343;-32.030;115.880;2023-10-31T08:47:05;101853.38;;;23.73;43.14
72370;BME280;60343;-32.030;115.880;2023-10-31T08:49:40;101862.16;;;23.75;43.19
72370;BME280;60343;-32.030;115.880;2023-10-31T08:52:16;101856.66;;;23.64;43.72
72370;BME280;60343;-32.030;115.880;2023-10-31T08:54:57;101865.78;;;23.58;44.37
72370;BME280;60343;-32.030;115.880;2023-10-31T08:57:32;101852.47;;;23.61;44.31
72370;BME280;60343;-32.030;115.880;2023-10-31T09:00:09;101849.28;;;23.64;44.21
72370;BME280;60343;-32.030;115.880;2023-10-31T09:02:44;101863.28;;;23.56;44.01
72370;BME280;60343;-32.030;115.880;2023-10-31T09:05:19;101858.16;;;23.48;44.66
72370;BME280;60343;-32.030;115.880;2023-10-31T09:07:54;101856.91;;;23.44;45.04
72370;BME280;60343;-32.030;115.880;2023-10-31T09:10:37;101862.56;;;23.31;45.39
72370;BME280;60343;-32.030;115.880;2023-10-31T09:13:14;101866.34;;;23.30;45.86
72370;BME280;60343;-32.030;115.880;2023-10-31T09:15:49;101874.25;;;23.20;46.06
72370;BME280;60343;-32.030;115.880;2023-10-31T09:18:24;101872.31;;;23.08;46.52
72370;BME280;60343;-32.030;115.880;2023-10-31T09:20:59;101879.28;;;23.04;46.28
72370;BME280;60343;-32.030;115.880;2023-10-31T09:23:35;101887.63;;;22.91;46.68
72370;BME280;60343;-32.030;115.880;2023-10-31T09:26:16;101886.44;;;22.87;45.61
72370;BME280;60343;-32.030;115.880;2023-10-31T09:28:51;101884.97;;;22.85;45.48
72370;BME280;60343;-32.030;115.880;2023-10-31T09:31:26;101893.16;;;22.85;43.17
72370;BME280;60343;-32.030;115.880;2023-10-31T09:34:01;101894.78;;;22.92;42.40
72370;BME280;60343;-32.030;115.880;2023-10-31T09:36:38;101896.19;;;22.95;42.48
72370;BME280;60343;-32.030;115.880;2023-10-31T09:39:15;101890.59;;;22.90;42.71
72370;BME280;60343;-32.030;115.880;2023-10-31T09:41:56;101901.75;;;22.88;43.02
72370;BME280;60343;-32.030;115.880;2023-10-31T09:44:31;101892.31;;;22.84;43.49
72370;BME280;60343;-32.030;115.880;2023-10-31T09:47:07;101895.16;;;22.78;43.68
72370;BME280;60343;-32.030;115.880;2023-10-31T09:49:37;101893.69;;;22.75;43.81
72370;BME280;60343;-32.030;115.880;2023-10-31T09:52:12;101897.13;;;22.64;43.89
72370;BME280;60343;-32.030;115.880;2023-10-31T09:54:50;101895.09;;;22.59;44.37
72370;BME280;60343;-32.030;115.880;2023-10-31T09:57:32;101903.78;;;22.50;44.91
72370;BME280;60343;-32.030;115.880;2023-10-31T10:00:09;101917.25;;;22.45;44.69
72370;BME280;60343;-32.030;115.880;2023-10-31T10:02:44;101913.63;;;22.33;45.06
72370;BME280;60343;-32.030;115.880;2023-10-31T10:05:21;101912.38;;;22.29;44.96
72370;BME280;60343;-32.030;115.880;2023-10-31T10:07:59;101911.22;;;22.18;45.06
72370;BME280;60343;-32.030;115.880;2023-10-31T10:10:35;101908.69;;;22.16;45.05
72370;BME280;60343;-32.030;115.880;2023-10-31T10:13:18;101907.66;;;22.17;45.17
72370;BME280;60343;-32.030;115.880;2023-10-31T10:15:53;101914.59;;;22.13;45.10
72370;BME280;60343;-32.030;115.880;2023-10-31T10:18:36;101916.97;;;22.03;45.19
72370;BME280;60343;-32.030;115.880;2023-10-31T10:21:13;101920.53;;;22.04;45.52
72370;BME280;60343;-32.030;115.880;2023-10-31T10:23:48;101921.44;;;21.98;45.61
72370;BME280;60343;-32.030;115.880;2023-10-31T10:26:26;101925.44;;;21.89;45.98
72370;BME280;60343;-32.030;115.880;2023-10-31T10:29:07;101928.81;;;21.84;46.09
72370;BME280;60343;-32.030;115.880;2023-10-31T10:31:42;101926.97;;;21.78;46.50
72370;BME280;60343;-32.030;115.880;2023-10-31T10:34:17;101929.31;;;21.74;46.31
72370;BME280;60343;-32.030;115.880;2023-10-31T10:36:54;101929.13;;;21.69;46.55
72370;BME280;60343;-32.030;115.880;2023-10-31T10:39:31;101945.94;;;21.60;46.76
72370;BME280;60343;-32.030;115.880;2023-10-31T10:42:10;101940.31;;;21.55;46.97
72370;BME280;60343;-32.030;115.880;2023-10-31T10:44:54;101948.56;;;21.42;47.56
72370;BME280;60343;-32.030;115.880;2023-10-31T10:47:34;101953.38;;;21.39;47.68
72370;BME280;60343;-32.030;115.880;2023-10-31T10:50:11;101952.16;;;21.29;48.08
72370;BME280;60343;-32.030;115.880;2023-10-31T10:52:54;101959.28;;;21.23;48.30
72370;BME280;60343;-32.030;115.880;2023-10-31T10:55:38;101966.66;;;21.16;48.41
72370;BME280;60343;-32.030;115.880;2023-10-31T10:58:22;101962.69;;;21.06;48.88
72370;BME280;60343;-32.030;115.880;2023-10-31T11:01:34;101972.72;;;20.98;49.27
72370;BME280;60343;-32.030;115.880;2023-10-31T11:04:25;101980.94;;;20.92;49.81
72370;BME280;60343;-32.030;115.880;2023-10-31T11:07:09;101980.09;;;20.85;50.09
72370;BME280;60343;-32.030;115.880;2023-10-31T11:09:45;101981.38;;;20.76;50.53
72370;BME280;60343;-32.030;115.880;2023-10-31T11:12:22;101983.69;;;20.72;50.52
72370;BME280;60343;-32.030;115.880;2023-10-31T11:14:58;101981.56;;;20.68;50.61
72370;BME280;60343;-32.030;115.880;2023-10-31T11:17:41;101999.78;;;20.61;51.03
72370;BME280;60343;-32.030;115.880;2023-10-31T11:20:18;101999.56;;;20.49;51.49
72370;BME280;60343;-32.030;115.880;2023-10-31T11:22:57;101997.69;;;20.36;52.10
72370;BME280;60343;-32.030;115.880;2023-10-31T11:25:33;102009.56;;;20.29;52.56
72370;BME280;60343;-32.030;115.880;2023-10-31T11:28:16;102006.25;;;20.33;52.44
72370;BME280;60343;-32.030;115.880;2023-10-31T11:30:51;102011.44;;;20.28;52.43
72370;BME280;60343;-32.030;115.880;2023-10-31T11:33:40;102012.97;;;20.31;51.97
72370;BME280;60343;-32.030;115.880;2023-10-31T11:36:15;102009.38;;;20.30;51.51
72370;BME280;60343;-32.030;115.880;2023-10-31T11:38:51;102006.63;;;20.24;51.32
72370;BME280;60343;-32.030;115.880;2023-10-31T11:41:49;102017.50;;;20.24;51.29
72370;BME280;60343;-32.030;115.880;2023-10-31T11:44:27;102024.22;;;20.21;51.55
72370;BME280;60343;-32.030;115.880;2023-10-31T11:47:02;102018.56;;;20.16;51.99
72370;BME280;60343;-32.030;115.880;2023-10-31T11:49:55;102016.81;;;20.02;52.59
72370;BME280;60343;-32.030;115.880;2023-10-31T11:52:31;102019.09;;;19.92;53.19
72370;BME280;60343;-32.030;115.880;2023-10-31T11:55:10;102026.59;;;19.83;53.50
72370;BME280;60343;-32.030;115.880;2023-10-31T11:57:45;102022.63;;;19.86;53.72
72370;BME280;60343;-32.030;115.880;2023-10-31T12:00:23;102020.75;;;19.86;54.10
72370;BME280;60343;-32.030;115.880;2023-10-31T12:03:01;102027.63;;;19.76;54.16
72370;BME280;60343;-32.030;115.880;2023-10-31T12:05:52;102040.75;;;19.65;54.59
72370;BME280;60343;-32.030;115.880;2023-10-31T12:08:29;102041.13;;;19.62;54.82
72370;BME280;60343;-32.030;115.880;2023-10-31T12:11:06;102051.75;;;19.57;54.89
72370;BME280;60343;-32.030;115.880;2023-10-31T12:13:52;102044.44;;;19.51;55.35
72370;BME280;60343;-32.030;115.880;2023-10-31T12:16:28;102044.56;;;19.43;55.84
72370;BME280;60343;-32.030;115.880;2023-10-31T12:19:04;102047.69;;;19.40;55.88
72370;BME280;60343;-32.030;115.880;2023-10-31T12:21:46;102046.66;;;19.41;55.93
72370;BME280;60343;-32.030;115.880;2023-10-31T12:24:24;102054.16;;;19.39;56.44
72370;BME280;60343;-32.030;115.880;2023-10-31T12:27:02;102049.31;;;19.35;57.00
72370;BME280;60343;-32.030;115.880;2023-10-31T12:29:38;102058.91;;;19.31;57.34
72370;BME280;60343;-32.030;115.880;2023-10-31T12:32:14;102067.59;;;19.19;58.05
72370;BME280;60343;-32.030;115.880;2023-10-31T12:34:49;102074.00;;;19.12;58.43
72370;BME280;60343;-32.030;115.880;2023-10-31T12:37:30;102069.88;;;19.16;58.67
72370;BME280;60343;-32.030;115.880;2023-10-31T12:40:07;102071.09;;;19.13;58.93
72370;BME280;60343;-32.030;115.880;2023-10-31T12:42:45;102071.19;;;18.99;59.28
72370;BME280;60343;-32.030;115.880;2023-10-31T12:45:20;102071.13;;;18.92;59.94
72370;BME280;60343;-32.030;115.880;2023-10-31T12:48:06;102064.88;;;18.92;59.87
72370;BME280;60343;-32.030;115.880;2023-10-31T12:50:41;102073.41;;;18.89;60.34
72370;BME280;60343;-32.030;115.880;2023-10-31T12:53:33;102076.72;;;18.84;60.47
72370;BME280;60343;-32.030;115.880;2023-10-31T12:56:08;102072.25;;;18.76;60.89
72370;BME280;60343;-32.030;115.880;2023-10-31T12:58:43;102074.72;;;18.71;61.28
72370;BME280;60343;-32.030;115.880;2023-10-31T13:01:18;102069.88;;;18.67;61.36
72370;BME280;60343;-32.030;115.880;2023-10-31T13:03:53;102078.34;;;18.57;61.75
72370;BME280;60343;-32.030;115.880;2023-10-31T13:06:29;102067.47;;;18.57;62.34
72370;BME280;60343;-32.030;115.880;2023-10-31T13:09:13;102074.69;;;18.50;62.93